AAL720 KDFW-KMIA
Flight info
| Callsign | AAL720 |
|---|---|
| Flight time | N/A |
| Altitude | 35000 |
| Route | MRSSH3 ZALEA HRV Q105 BLVNS Y290 DOWRY FROGZ5 |
| Aircraft | B738/M-VGDW/C |
Departure
| Time | 2026-04-30 22:30 |
|---|---|
| Airport | Dallas Fort Worth International Airport (KDFW) |
Arrival
| Time | N/A |
|---|---|
| Airport | Miami International Airport (KMIA) |
| Time | Latitude | Longitude | Altitude | Speed | Heading |
|---|---|---|---|---|---|
| 2026-04-30 22:05 | 32.90547 | -97.03513 | 597 ft | 0 kts | 278° |
| 2026-04-30 22:20 | 32.90546 | -97.03505 | 597 ft | 1 kts | 278° |
| 2026-04-30 22:20 | 32.90545 | -97.03496 | 597 ft | 1 kts | 278° |
| 2026-04-30 22:21 | 32.90544 | -97.03487 | 597 ft | 1 kts | 278° |
| 2026-04-30 22:21 | 32.90543 | -97.03478 | 597 ft | 1 kts | 278° |
| 2026-04-30 22:21 | 32.90542 | -97.03470 | 597 ft | 1 kts | 278° |
| 2026-04-30 22:21 | 32.90541 | -97.03461 | 597 ft | 1 kts | 278° |
| 2026-04-30 22:22 | 32.90539 | -97.03450 | 596 ft | 2 kts | 278° |
| 2026-04-30 22:22 | 32.90539 | -97.03442 | 596 ft | 2 kts | 292° |
| 2026-04-30 22:22 | 32.90532 | -97.03432 | 596 ft | 2 kts | 339° |
| 2026-04-30 22:22 | 32.90524 | -97.03429 | 596 ft | 0 kts | 355° |
| 2026-04-30 22:24 | 32.90527 | -97.03430 | 596 ft | 2 kts | 359° |
| 2026-04-30 22:24 | 32.90536 | -97.03410 | 596 ft | 4 kts | 94° |
| 2026-04-30 22:24 | 32.90516 | -97.03357 | 596 ft | 10 kts | 116° |
| 2026-04-30 22:24 | 32.90441 | -97.03313 | 596 ft | 16 kts | 180° |
| 2026-04-30 22:25 | 32.90312 | -97.03315 | 596 ft | 21 kts | 179° |
| 2026-04-30 22:25 | 32.90150 | -97.03314 | 596 ft | 25 kts | 180° |
| 2026-04-30 22:25 | 32.89971 | -97.03314 | 596 ft | 25 kts | 180° |
| 2026-04-30 22:25 | 32.89779 | -97.03316 | 596 ft | 30 kts | 180° |
| 2026-04-30 22:26 | 32.89315 | -97.03319 | 596 ft | 34 kts | 180° |
| 2026-04-30 22:26 | 32.89067 | -97.03321 | 596 ft | 37 kts | 180° |
| 2026-04-30 22:26 | 32.88821 | -97.03321 | 596 ft | 36 kts | 179° |
| 2026-04-30 22:27 | 32.88606 | -97.03320 | 596 ft | 23 kts | 180° |
| 2026-04-30 22:27 | 32.88431 | -97.03290 | 595 ft | 28 kts | 179° |
| 2026-04-30 22:27 | 32.88041 | -97.03294 | 596 ft | 21 kts | 180° |
| 2026-04-30 22:28 | 32.87981 | -97.03137 | 583 ft | 3 kts | 87° |
| 2026-04-30 22:28 | 32.87982 | -97.03133 | 582 ft | 0 kts | 87° |
| 2026-04-30 22:29 | 32.88107 | -97.03009 | 580 ft | 19 kts | 0° |
| 2026-04-30 22:29 | 32.88446 | -97.03006 | 576 ft | 83 kts | 1° |
| 2026-04-30 22:30 | 32.93237 | -97.02847 | 1350 ft | 229 kts | 12° |
| 2026-04-30 22:31 | 32.98008 | -97.01223 | 3283 ft | 246 kts | 20° |
| 2026-04-30 22:32 | 33.01672 | -96.97211 | 4758 ft | 266 kts | 81° |
| 2026-04-30 22:32 | 33.01438 | -96.92727 | 5669 ft | 281 kts | 98° |
| 2026-04-30 22:33 | 33.00623 | -96.85694 | 7229 ft | 295 kts | 120° |
| 2026-04-30 22:33 | 32.98269 | -96.81685 | 8386 ft | 299 kts | 129° |
| 2026-04-30 22:34 | 32.94572 | -96.75430 | 10127 ft | 314 kts | 129° |
| 2026-04-30 22:35 | 32.91914 | -96.70931 | 10537 ft | 352 kts | 129° |
| 2026-04-30 22:36 | 32.85799 | -96.60566 | 11677 ft | 400 kts | 128° |
| 2026-04-30 22:36 | 32.84194 | -96.57842 | 12220 ft | 404 kts | 129° |
| 2026-04-30 22:37 | 32.79296 | -96.49557 | 13826 ft | 416 kts | 129° |
| 2026-04-30 22:37 | 32.77600 | -96.46695 | 14308 ft | 420 kts | 129° |
| 2026-04-30 22:37 | 32.74213 | -96.40984 | 15276 ft | 429 kts | 129° |
| 2026-04-30 22:38 | 32.70753 | -96.35122 | 16231 ft | 439 kts | 126° |
| 2026-04-30 22:38 | 32.69224 | -96.28024 | 17188 ft | 455 kts | 92° |
| 2026-04-30 22:39 | 32.69050 | -96.24260 | 17648 ft | 459 kts | 94° |
| 2026-04-30 22:39 | 32.68326 | -96.12759 | 18899 ft | 470 kts | 95° |
| 2026-04-30 22:40 | 32.67526 | -96.01024 | 20079 ft | 479 kts | 95° |
| 2026-04-30 22:41 | 32.66714 | -95.89126 | 21160 ft | 489 kts | 95° |
| 2026-04-30 22:41 | 32.66155 | -95.81038 | 21860 ft | 495 kts | 95° |
| 2026-04-30 22:42 | 32.64999 | -95.64572 | 23168 ft | 507 kts | 95° |
| 2026-04-30 22:43 | 32.64403 | -95.56192 | 23731 ft | 512 kts | 95° |
| 2026-04-30 22:43 | 32.63795 | -95.47726 | 24215 ft | 518 kts | 95° |
| 2026-04-30 22:44 | 32.63175 | -95.39161 | 24674 ft | 523 kts | 95° |
| 2026-04-30 22:45 | 32.61899 | -95.21800 | 25572 ft | 533 kts | 95° |
| 2026-04-30 22:45 | 32.61243 | -95.12998 | 25994 ft | 538 kts | 95° |
| 2026-04-30 22:46 | 32.60579 | -95.04171 | 26417 ft | 542 kts | 95° |
| 2026-04-30 22:47 | 32.59207 | -94.86189 | 27252 ft | 551 kts | 95° |
| 2026-04-30 22:47 | 32.58462 | -94.77114 | 27635 ft | 555 kts | 99° |
| 2026-04-30 22:48 | 32.56268 | -94.68361 | 28032 ft | 554 kts | 112° |
| 2026-04-30 22:49 | 32.52349 | -94.55486 | 28696 ft | 557 kts | 111° |
| 2026-04-30 22:49 | 32.48611 | -94.42436 | 29502 ft | 558 kts | 110° |
| 2026-04-30 22:50 | 32.43672 | -94.25016 | 30570 ft | 556 kts | 110° |
| 2026-04-30 22:51 | 32.41204 | -94.16394 | 31081 ft | 556 kts | 110° |
| 2026-04-30 22:51 | 32.38715 | -94.07733 | 31617 ft | 555 kts | 110° |
| 2026-04-30 22:52 | 32.37474 | -94.03420 | 31874 ft | 554 kts | 110° |
| 2026-04-30 22:52 | 32.34987 | -93.94798 | 32374 ft | 553 kts | 110° |
| 2026-04-30 22:53 | 32.32500 | -93.86197 | 32890 ft | 552 kts | 110° |
| 2026-04-30 22:53 | 32.30010 | -93.77614 | 33385 ft | 551 kts | 110° |
| 2026-04-30 22:53 | 32.28766 | -93.73333 | 33649 ft | 550 kts | 109° |
| 2026-04-30 22:54 | 32.26273 | -93.64777 | 34131 ft | 549 kts | 109° |
| 2026-04-30 22:55 | 32.22588 | -93.52166 | 35015 ft | 540 kts | 109° |
| 2026-04-30 22:55 | 32.19356 | -93.44205 | 35005 ft | 534 kts | 132° |
| 2026-04-30 22:56 | 32.14704 | -93.37383 | 35002 ft | 534 kts | 132° |
| 2026-04-30 22:57 | 32.03268 | -93.20110 | 34993 ft | 533 kts | 131° |
| 2026-04-30 22:58 | 31.94225 | -93.06291 | 34987 ft | 534 kts | 131° |
| 2026-04-30 22:59 | 31.80649 | -92.85685 | 35000 ft | 528 kts | 130° |